createdAt,value
2018-10-07T00:01:23.358Z,87.84
2018-10-07T00:03:52.661Z,87.92
2018-10-07T00:06:21.942Z,88.43
2018-10-07T00:08:51.215Z,87.32
2018-10-07T00:11:20.698Z,87.84
2018-10-07T00:13:50.013Z,88.50
2018-10-07T00:16:19.476Z,88.96
2018-10-07T00:18:48.849Z,90.02
2018-10-07T00:21:18.383Z,90.32
2018-10-07T00:23:47.670Z,90.55
2018-10-07T00:26:17.159Z,90.64
2018-10-07T00:28:46.602Z,90.17
2018-10-07T00:31:16.166Z,90.46
2018-10-07T00:33:45.714Z,90.46
2018-10-07T00:36:15.124Z,90.95
2018-10-07T00:38:44.517Z,91.55
2018-10-07T00:41:13.919Z,91.99
2018-10-07T00:43:43.305Z,91.99
2018-10-07T00:46:12.615Z,91.73
2018-10-07T00:48:42.019Z,92.50
2018-10-07T00:51:11.306Z,93.18
2018-10-07T00:53:40.606Z,92.67
2018-10-07T00:56:09.916Z,92.39
2018-10-07T00:58:39.145Z,92.17
2018-10-07T01:01:08.498Z,92.25
2018-10-07T01:03:37.844Z,92.51
2018-10-07T01:06:07.419Z,92.68
2018-10-07T01:08:36.711Z,92.81
2018-10-07T01:11:06.134Z,92.88
2018-10-07T01:13:35.854Z,91.56
2018-10-07T01:16:05.230Z,92.34
2018-10-07T01:18:34.459Z,92.69
2018-10-07T01:21:03.733Z,93.15
2018-10-07T01:23:33.012Z,93.67
2018-10-07T01:26:02.334Z,94.14
2018-10-07T01:28:31.585Z,94.28
2018-10-07T01:31:00.872Z,93.96
2018-10-07T01:33:30.165Z,94.45
2018-10-07T01:35:59.375Z,94.35
2018-10-07T01:38:28.821Z,94.67
2018-10-07T01:40:58.094Z,94.63
2018-10-07T01:43:27.470Z,94.67
2018-10-07T01:45:56.745Z,95.00
2018-10-07T01:48:26.046Z,95.91
2018-10-07T01:50:55.393Z,95.32
2018-10-07T01:53:24.646Z,95.58
2018-10-07T01:55:53.942Z,95.34
2018-10-07T01:58:23.206Z,95.54
2018-10-07T02:00:52.504Z,96.19
2018-10-07T02:03:21.842Z,96.14
2018-10-07T02:05:51.203Z,96.73
2018-10-07T02:08:20.512Z,97.07
2018-10-07T02:10:49.855Z,97.53
2018-10-07T02:13:19.212Z,97.95
2018-10-07T02:15:48.668Z,98.22
2018-10-07T02:18:18.031Z,98.21
2018-10-07T02:20:47.480Z,97.99
2018-10-07T02:23:17.780Z,98.48
2018-10-07T02:25:47.192Z,99.13
2018-10-07T02:28:16.518Z,99.78
2018-10-07T02:30:45.954Z,100.00
2018-10-07T02:33:15.431Z,100.00
2018-10-07T02:35:45.007Z,100.00
2018-10-07T02:38:14.474Z,100.00
2018-10-07T02:40:43.856Z,100.00
2018-10-07T02:43:13.199Z,100.00
2018-10-07T02:45:42.474Z,100.00
2018-10-07T02:48:11.812Z,100.00
2018-10-07T02:50:42.013Z,100.00
2018-10-07T02:53:11.335Z,100.00
2018-10-07T02:55:40.714Z,100.00
2018-10-07T02:58:10.770Z,100.00
2018-10-07T03:00:40.107Z,100.00
2018-10-07T03:03:09.487Z,100.00
2018-10-07T03:05:38.783Z,100.00
2018-10-07T03:08:08.066Z,100.00
2018-10-07T03:10:37.530Z,100.00
2018-10-07T03:13:06.825Z,100.00
2018-10-07T03:15:36.231Z,100.00
2018-10-07T03:18:05.518Z,100.00
2018-10-07T03:20:34.879Z,100.00
2018-10-07T03:23:04.131Z,100.00
2018-10-07T03:25:33.572Z,100.00
2018-10-07T03:28:02.898Z,100.00
2018-10-07T03:30:32.190Z,100.00
2018-10-07T03:33:01.451Z,100.00
2018-10-07T03:35:30.718Z,100.00
2018-10-07T03:37:59.965Z,100.00
2018-10-07T03:40:29.250Z,100.00
2018-10-07T03:42:58.518Z,100.00
2018-10-07T03:45:27.780Z,100.00
2018-10-07T03:47:57.034Z,100.00
2018-10-07T03:50:26.302Z,100.00
2018-10-07T03:52:55.727Z,100.00
2018-10-07T03:55:25.090Z,100.00
2018-10-07T03:57:54.552Z,100.00
2018-10-07T04:00:23.834Z,100.00
2018-10-07T04:02:53.175Z,100.00
2018-10-07T04:05:22.524Z,100.00
2018-10-07T04:07:51.843Z,100.00
2018-10-07T04:10:21.163Z,100.00
2018-10-07T04:12:50.489Z,100.00
2018-10-07T04:15:19.886Z,100.00
2018-10-07T04:17:49.307Z,100.00
2018-10-07T04:20:18.821Z,100.00
2018-10-07T04:22:48.223Z,100.00
2018-10-07T04:25:17.614Z,100.00
2018-10-07T04:27:47.075Z,100.00
2018-10-07T04:30:16.496Z,100.00
2018-10-07T04:32:46.332Z,100.00
2018-10-07T04:35:15.797Z,100.00
2018-10-07T04:37:45.436Z,100.00
2018-10-07T04:40:14.849Z,100.00
2018-10-07T04:42:44.371Z,100.00
2018-10-07T04:45:13.714Z,100.00
2018-10-07T04:47:43.058Z,100.00
2018-10-07T04:50:12.389Z,100.00
2018-10-07T04:52:41.696Z,100.00
2018-10-07T04:55:11.002Z,100.00
2018-10-07T04:57:40.323Z,100.00
2018-10-07T05:00:09.614Z,100.00
2018-10-07T05:02:39.003Z,100.00
2018-10-07T05:05:09.363Z,100.00
2018-10-07T05:07:38.782Z,100.00
2018-10-07T05:11:01.075Z,100.00
2018-10-07T05:13:42.391Z,100.00
2018-10-07T05:16:12.948Z,100.00
2018-10-07T05:18:42.970Z,100.00
2018-10-07T05:21:12.312Z,100.00
2018-10-07T05:23:41.671Z,100.00
2018-10-07T05:26:11.013Z,100.00
2018-10-07T05:28:40.284Z,100.00
2018-10-07T05:31:09.633Z,100.00
2018-10-07T05:33:38.902Z,100.00
2018-10-07T05:36:08.247Z,100.00
2018-10-07T05:38:37.543Z,100.00
2018-10-07T05:41:07.010Z,100.00
2018-10-07T05:43:36.391Z,100.00
2018-10-07T05:46:05.778Z,100.00
2018-10-07T05:48:34.968Z,100.00
2018-10-07T05:51:04.887Z,100.00
2018-10-07T05:53:34.218Z,100.00
2018-10-07T05:56:03.513Z,100.00
2018-10-07T05:58:33.807Z,100.00
2018-10-07T06:01:08.569Z,100.00
2018-10-07T06:05:52.514Z,100.00
2018-10-07T06:08:22.861Z,100.00
2018-10-07T06:10:52.312Z,100.00
2018-10-07T06:13:21.595Z,100.00
2018-10-07T06:15:51.023Z,100.00
2018-10-07T06:18:20.451Z,100.00
2018-10-07T06:20:49.889Z,100.00
2018-10-07T06:23:19.438Z,100.00
2018-10-07T06:25:48.922Z,100.00
2018-10-07T06:28:18.499Z,100.00
2018-10-07T06:30:48.189Z,100.00
2018-10-07T06:33:17.613Z,100.00
2018-10-07T06:35:47.067Z,100.00
2018-10-07T06:38:16.743Z,100.00
2018-10-07T06:40:46.229Z,100.00
2018-10-07T06:43:15.760Z,100.00
2018-10-07T06:45:45.364Z,100.00
2018-10-07T06:48:14.843Z,100.00
2018-10-07T06:50:44.268Z,100.00
2018-10-07T06:53:13.672Z,100.00
2018-10-07T06:55:43.852Z,99.92
2018-10-07T06:58:13.357Z,99.33
2018-10-07T07:00:42.707Z,97.48
2018-10-07T07:03:12.045Z,97.93
2018-10-07T07:05:41.343Z,97.70
2018-10-07T07:08:10.667Z,97.10
2018-10-07T07:10:40.015Z,92.92
2018-10-07T07:13:09.452Z,91.90
2018-10-07T07:15:38.643Z,92.37
2018-10-07T07:18:08.146Z,91.96
2018-10-07T07:20:37.465Z,92.21
2018-10-07T07:23:06.906Z,91.56
2018-10-07T07:25:36.205Z,88.52
2018-10-07T07:28:05.509Z,86.68
2018-10-07T07:30:34.815Z,85.92
2018-10-07T07:33:04.156Z,85.72
2018-10-07T07:35:33.499Z,85.34
2018-10-07T07:38:02.812Z,85.06
2018-10-07T07:40:32.267Z,84.58
2018-10-07T07:43:01.592Z,83.77
2018-10-07T07:45:30.978Z,82.77
2018-10-07T07:48:00.352Z,82.47
2018-10-07T07:50:29.825Z,81.40
2018-10-07T07:52:59.185Z,81.14
2018-10-07T07:55:28.497Z,80.82
2018-10-07T07:57:57.898Z,79.94
2018-10-07T08:00:27.259Z,79.52
2018-10-07T08:02:56.674Z,78.55
2018-10-07T08:05:26.122Z,77.96
2018-10-07T08:07:55.510Z,76.72
2018-10-07T08:10:24.837Z,75.94
2018-10-07T08:12:55.037Z,72.97
2018-10-07T08:15:24.398Z,73.02
2018-10-07T08:17:54.124Z,72.37
2018-10-07T08:20:23.368Z,71.43
2018-10-07T08:22:52.704Z,72.67
2018-10-07T08:25:22.010Z,71.21
2018-10-07T08:27:51.391Z,71.27
2018-10-07T08:30:21.991Z,71.26
2018-10-07T08:32:51.354Z,70.94
2018-10-07T08:35:20.919Z,69.67
2018-10-07T08:37:50.295Z,70.07
2018-10-07T08:40:22.879Z,69.37
2018-10-07T08:42:52.276Z,68.91
2018-10-07T08:45:22.617Z,68.54
2018-10-07T08:47:52.036Z,68.10
2018-10-07T08:50:22.798Z,68.50
2018-10-07T08:52:52.414Z,67.13
2018-10-07T08:55:22.034Z,66.23
2018-10-07T08:57:51.663Z,66.15
2018-10-07T09:00:21.075Z,65.54
2018-10-07T09:02:50.550Z,65.95
2018-10-07T09:05:19.979Z,65.02
2018-10-07T09:07:49.499Z,64.92
2018-10-07T09:10:18.982Z,65.03
2018-10-07T09:12:52.383Z,64.82
2018-10-07T09:15:22.007Z,64.80
2018-10-07T09:17:53.042Z,65.20
2018-10-07T09:20:22.454Z,64.91
2018-10-07T09:22:51.802Z,65.36
2018-10-07T09:25:21.280Z,64.85
2018-10-07T09:27:53.331Z,65.53
2018-10-07T09:30:22.701Z,66.77
2018-10-07T09:32:52.117Z,67.53
2018-10-07T09:35:24.771Z,68.04
2018-10-07T09:37:56.384Z,68.53
2018-10-07T09:40:25.840Z,68.90
2018-10-07T09:42:55.307Z,67.48
2018-10-07T09:45:27.059Z,66.36
2018-10-07T09:47:56.366Z,66.18
2018-10-07T09:50:26.880Z,65.55
2018-10-07T09:52:56.156Z,65.40
2018-10-07T09:55:25.777Z,64.62
2018-10-07T09:57:55.119Z,64.74
2018-10-07T10:00:29.544Z,63.35
2018-10-07T10:02:58.845Z,63.28
2018-10-07T10:05:29.535Z,62.76
2018-10-07T10:07:58.815Z,63.36
2018-10-07T10:10:28.353Z,63.54
2018-10-07T10:12:57.683Z,63.27
2018-10-07T10:15:27.023Z,62.75
2018-10-07T10:18:06.202Z,62.95
2018-10-07T10:20:45.742Z,63.34
2018-10-07T10:23:41.017Z,63.34
2018-10-07T10:26:17.948Z,62.75
2018-10-07T10:29:24.628Z,61.98
2018-10-07T10:32:35.657Z,61.89
2018-10-07T10:35:36.770Z,61.35
2018-10-07T10:38:18.408Z,61.21
2018-10-07T10:40:52.818Z,60.42
2018-10-07T10:43:46.676Z,61.50
2018-10-07T10:46:31.946Z,60.90
2018-10-07T10:49:15.624Z,61.04
2018-10-07T10:51:58.945Z,60.84
2018-10-07T10:54:44.121Z,61.05
2018-10-07T10:57:26.662Z,60.83
2018-10-07T11:00:08.916Z,60.57
2018-10-07T11:04:03.419Z,61.09
2018-10-07T11:06:56.936Z,60.22
2018-10-07T11:11:43.011Z,59.91
2018-10-07T11:15:27.068Z,59.70
2018-10-07T11:20:14.938Z,58.95
2018-10-07T11:24:07.575Z,59.36
2018-10-07T11:28:05.827Z,58.48
2018-10-07T11:31:02.166Z,57.81
2018-10-07T11:34:19.042Z,57.30
2018-10-07T11:38:04.617Z,58.21
2018-10-07T11:40:51.718Z,58.34
2018-10-07T11:43:34.085Z,57.81
2018-10-07T11:46:17.860Z,57.71
2018-10-07T11:48:59.367Z,57.88
2018-10-07T11:53:47.901Z,57.79
2018-10-07T11:56:17.426Z,56.80
2018-10-07T11:58:47.440Z,56.46
2018-10-07T12:01:17.258Z,55.90
2018-10-07T12:03:47.051Z,56.21
2018-10-07T12:06:16.641Z,55.58
2018-10-07T12:08:46.326Z,55.67
2018-10-07T12:11:15.812Z,55.86
2018-10-07T12:13:46.343Z,56.40
2018-10-07T12:16:15.830Z,55.79
2018-10-07T12:18:45.316Z,55.74
2018-10-07T12:21:14.715Z,56.02
2018-10-07T12:23:44.098Z,55.92
2018-10-07T12:26:13.439Z,55.73
2018-10-07T12:28:42.779Z,54.77
2018-10-07T12:31:12.231Z,55.69
2018-10-07T12:33:41.606Z,53.94
2018-10-07T12:36:10.951Z,54.16
2018-10-07T12:38:40.276Z,54.05
2018-10-07T12:41:09.555Z,54.37
2018-10-07T12:43:38.855Z,54.40
2018-10-07T12:46:08.219Z,55.02
2018-10-07T12:48:37.591Z,54.91
2018-10-07T12:51:07.322Z,54.58
2018-10-07T12:53:36.670Z,54.63
2018-10-07T12:56:06.234Z,54.00
2018-10-07T12:58:35.560Z,55.14
2018-10-07T13:01:04.923Z,55.47
2018-10-07T13:03:34.254Z,54.32
2018-10-07T13:06:03.665Z,55.33
2018-10-07T13:08:32.956Z,55.17
2018-10-07T13:11:02.364Z,54.66
2018-10-07T13:13:31.724Z,54.66
2018-10-07T13:16:01.010Z,54.30
2018-10-07T13:18:30.347Z,55.96
2018-10-07T13:20:59.678Z,55.54
2018-10-07T13:23:29.043Z,55.48
2018-10-07T13:25:58.311Z,54.57
2018-10-07T13:28:27.643Z,54.96
2018-10-07T13:30:56.886Z,54.54
2018-10-07T13:33:26.336Z,54.70
2018-10-07T13:35:55.680Z,54.13
2018-10-07T13:38:28.516Z,54.16
2018-10-07T13:40:59.900Z,54.93
2018-10-07T13:43:30.827Z,53.88
2018-10-07T13:46:00.157Z,54.16
2018-10-07T13:48:29.601Z,54.18
2018-10-07T13:50:58.851Z,54.02
2018-10-07T13:53:28.487Z,53.51
2018-10-07T13:55:57.680Z,54.30
2018-10-07T13:58:26.991Z,54.62
2018-10-07T14:00:56.306Z,56.11
2018-10-07T14:03:25.712Z,56.74
2018-10-07T14:05:54.995Z,56.57
2018-10-07T14:08:28.152Z,56.61
2018-10-07T14:10:57.594Z,57.01
2018-10-07T14:13:27.322Z,56.66
2018-10-07T14:15:56.638Z,56.42
2018-10-07T14:18:26.734Z,57.10
2018-10-07T14:20:55.998Z,57.57
2018-10-07T14:23:25.389Z,57.31
2018-10-07T14:25:54.704Z,57.91
2018-10-07T14:28:23.990Z,57.52
2018-10-07T14:30:53.312Z,57.83
2018-10-07T14:33:23.273Z,57.85
2018-10-07T14:35:52.575Z,58.74
2018-10-07T14:38:23.353Z,58.03
2018-10-07T14:40:52.759Z,57.34
2018-10-07T14:43:22.644Z,58.15
2018-10-07T14:45:51.923Z,58.07
2018-10-07T14:48:21.416Z,58.28
2018-10-07T14:50:50.766Z,57.69
2018-10-07T14:53:20.179Z,58.28
2018-10-07T14:55:49.543Z,58.59
2018-10-07T14:58:19.042Z,57.65
2018-10-07T15:00:48.456Z,58.67
2018-10-07T15:03:17.915Z,58.50
2018-10-07T15:05:47.363Z,58.12
2018-10-07T15:08:16.786Z,58.33
2018-10-07T15:10:46.271Z,59.19
2018-10-07T15:13:15.743Z,59.63
2018-10-07T15:15:45.197Z,59.50
2018-10-07T15:18:14.688Z,59.66
2018-10-07T15:20:44.106Z,60.64
2018-10-07T15:23:13.461Z,60.05
2018-10-07T15:25:42.867Z,59.54
2018-10-07T15:28:12.249Z,59.33
2018-10-07T15:30:41.598Z,60.05
2018-10-07T15:33:10.843Z,59.83
2018-10-07T15:35:40.210Z,60.19
2018-10-07T15:38:09.462Z,60.72
2018-10-07T15:40:38.884Z,60.87
2018-10-07T15:43:08.229Z,61.44
2018-10-07T15:45:37.490Z,62.22
2018-10-07T15:48:07.032Z,60.95
2018-10-07T15:50:36.308Z,62.07
2018-10-07T15:53:05.912Z,62.30
2018-10-07T15:55:35.266Z,63.62
2018-10-07T15:58:04.633Z,64.36
2018-10-07T16:00:34.041Z,64.74
2018-10-07T16:03:03.459Z,64.63
2018-10-07T16:05:32.856Z,65.57
2018-10-07T16:08:02.205Z,65.92
2018-10-07T16:10:32.328Z,65.90
2018-10-07T16:13:01.659Z,66.44
2018-10-07T16:15:30.992Z,66.61
2018-10-07T16:18:00.334Z,67.44
2018-10-07T16:20:29.663Z,67.42
2018-10-07T16:22:58.968Z,67.42
2018-10-07T16:25:28.222Z,67.88
2018-10-07T16:27:57.487Z,68.94
2018-10-07T16:30:26.951Z,69.87
2018-10-07T16:32:56.264Z,69.94
2018-10-07T16:35:25.584Z,70.56
2018-10-07T16:37:54.872Z,70.80
2018-10-07T16:40:24.211Z,71.19
2018-10-07T16:42:53.893Z,71.54
2018-10-07T16:45:23.219Z,72.16
2018-10-07T16:47:52.451Z,72.35
2018-10-07T16:50:21.914Z,72.83
2018-10-07T16:52:51.735Z,73.58
2018-10-07T16:55:21.180Z,73.65
2018-10-07T16:57:50.522Z,74.55
2018-10-07T17:00:20.835Z,74.91
2018-10-07T17:02:50.235Z,75.16
2018-10-07T17:05:19.608Z,75.82
2018-10-07T17:07:49.071Z,76.50
2018-10-07T17:10:18.499Z,76.38
2018-10-07T17:12:48.005Z,77.33
2018-10-07T17:15:17.400Z,77.31
2018-10-07T17:17:46.968Z,77.42
2018-10-07T17:20:16.527Z,77.25
2018-10-07T17:22:46.104Z,76.87
2018-10-07T17:25:15.640Z,77.35
2018-10-07T17:27:45.087Z,77.93
2018-10-07T17:30:14.589Z,78.91
2018-10-07T17:32:44.059Z,78.96
2018-10-07T17:35:13.437Z,79.31
2018-10-07T17:37:42.681Z,79.46
2018-10-07T17:40:11.998Z,80.03
2018-10-07T17:42:41.439Z,80.68
2018-10-07T17:45:10.690Z,81.12
2018-10-07T17:47:40.264Z,81.43
2018-10-07T17:50:09.627Z,81.87
2018-10-07T17:52:38.917Z,82.24
2018-10-07T17:55:08.361Z,82.54
2018-10-07T17:57:37.658Z,82.26
2018-10-07T18:00:07.035Z,83.33
2018-10-07T18:02:36.435Z,82.83
2018-10-07T18:05:05.907Z,83.19
2018-10-07T18:07:35.384Z,83.60
2018-10-07T18:10:04.805Z,83.93
2018-10-07T18:12:34.299Z,84.82
2018-10-07T18:15:03.819Z,84.65
2018-10-07T18:17:33.090Z,84.44
2018-10-07T18:20:02.442Z,85.15
2018-10-07T18:22:31.968Z,85.43
2018-10-07T18:25:01.284Z,86.02
2018-10-07T18:27:30.658Z,86.46
2018-10-07T18:29:59.998Z,86.65
2018-10-07T18:32:29.456Z,85.10
2018-10-07T18:34:58.851Z,84.13
2018-10-07T18:37:28.397Z,82.32
2018-10-07T18:39:57.833Z,80.23
2018-10-07T18:42:27.987Z,83.68
2018-10-07T18:44:57.267Z,85.02
2018-10-07T18:47:26.976Z,85.33
2018-10-07T18:49:56.391Z,86.00
2018-10-07T18:52:25.722Z,86.48
2018-10-07T18:54:55.082Z,86.67
2018-10-07T18:57:24.444Z,87.49
2018-10-07T18:59:53.929Z,88.24
2018-10-07T19:02:27.686Z,88.98
2018-10-07T19:04:56.972Z,89.56
2018-10-07T19:07:26.314Z,89.92
2018-10-07T19:09:55.697Z,90.45
2018-10-07T19:12:25.052Z,90.90
2018-10-07T19:14:54.332Z,91.58
2018-10-07T19:17:23.776Z,92.27
2018-10-07T19:19:53.364Z,92.53
2018-10-07T19:22:27.270Z,91.96
2018-10-07T19:24:56.856Z,92.57
2018-10-07T19:27:26.209Z,92.31
2018-10-07T19:29:55.664Z,93.06
2018-10-07T19:32:37.703Z,93.58
2018-10-07T19:35:08.331Z,93.91
2018-10-07T19:37:40.719Z,93.63
2018-10-07T19:40:10.100Z,93.43
2018-10-07T19:42:39.525Z,92.93
2018-10-07T19:45:09.080Z,93.51
2018-10-07T19:47:38.441Z,94.15
2018-10-07T19:50:07.831Z,93.96
2018-10-07T19:52:37.188Z,94.48
2018-10-07T19:55:06.531Z,94.05
2018-10-07T19:57:35.865Z,94.12
2018-10-07T20:00:05.447Z,94.28
2018-10-07T20:02:34.805Z,94.70
2018-10-07T20:05:04.162Z,95.38
2018-10-07T20:07:34.349Z,95.67
2018-10-07T20:10:03.748Z,95.68
2018-10-07T20:12:33.190Z,96.52
2018-10-07T20:15:02.694Z,95.69
2018-10-07T20:17:32.049Z,95.50
2018-10-07T20:20:01.485Z,96.26
2018-10-07T20:22:30.967Z,97.21
2018-10-07T20:25:01.609Z,97.53
2018-10-07T20:27:32.026Z,97.66
2018-10-07T20:30:02.982Z,98.07
2018-10-07T20:32:33.276Z,98.23
2018-10-07T20:35:03.820Z,98.77
2018-10-07T20:37:34.233Z,98.60
2018-10-07T20:40:04.742Z,98.94
2018-10-07T20:42:34.841Z,99.92
2018-10-07T20:45:04.267Z,100.00
2018-10-07T20:47:33.566Z,100.00
2018-10-07T20:50:02.836Z,100.00
2018-10-07T20:52:32.275Z,99.77
2018-10-07T20:55:01.557Z,100.00
2018-10-07T20:57:31.054Z,100.00
2018-10-07T21:00:00.416Z,100.00
2018-10-07T21:02:29.918Z,100.00
2018-10-07T21:04:59.291Z,100.00
2018-10-07T21:07:28.627Z,100.00
2018-10-07T21:09:58.114Z,100.00
2018-10-07T21:12:27.450Z,100.00
2018-10-07T21:14:56.720Z,100.00
2018-10-07T21:17:26.076Z,100.00
2018-10-07T21:19:55.455Z,100.00
2018-10-07T21:22:24.878Z,100.00
2018-10-07T21:24:54.211Z,100.00
2018-10-07T21:27:23.498Z,100.00
2018-10-07T21:29:52.798Z,100.00
2018-10-07T21:32:22.119Z,100.00
2018-10-07T21:34:51.394Z,100.00
2018-10-07T21:37:20.761Z,100.00
2018-10-07T21:39:49.977Z,100.00
2018-10-07T21:42:19.320Z,100.00
2018-10-07T21:44:48.645Z,100.00
2018-10-07T21:47:17.988Z,100.00
2018-10-07T21:49:47.330Z,100.00
2018-10-07T21:52:16.624Z,100.00
2018-10-07T21:54:46.127Z,100.00
2018-10-07T21:57:15.839Z,100.00
2018-10-07T21:59:45.231Z,100.00
2018-10-07T22:02:14.764Z,100.00
2018-10-07T22:04:44.442Z,100.00
2018-10-07T22:07:14.333Z,100.00
2018-10-07T22:09:44.132Z,100.00
2018-10-07T22:12:13.826Z,100.00
2018-10-07T22:14:43.531Z,100.00
2018-10-07T22:17:13.547Z,100.00
2018-10-07T22:19:43.214Z,100.00
2018-10-07T22:22:12.960Z,100.00
2018-10-07T22:24:42.572Z,100.00
2018-10-07T22:27:12.386Z,100.00
2018-10-07T22:29:42.294Z,100.00
2018-10-07T22:32:12.236Z,100.00
2018-10-07T22:34:42.006Z,100.00
2018-10-07T22:37:11.798Z,100.00
2018-10-07T22:39:41.661Z,100.00
2018-10-07T22:42:11.593Z,100.00
2018-10-07T22:44:41.665Z,100.00
2018-10-07T22:47:11.549Z,100.00
2018-10-07T22:49:41.535Z,100.00
2018-10-07T22:52:12.056Z,100.00
2018-10-07T22:54:41.684Z,100.00
2018-10-07T22:57:11.855Z,100.00
2018-10-07T22:59:41.693Z,100.00
2018-10-07T23:02:11.629Z,100.00
2018-10-07T23:04:41.769Z,100.00
2018-10-07T23:07:11.721Z,100.00
2018-10-07T23:09:41.566Z,100.00
2018-10-07T23:12:11.370Z,100.00
2018-10-07T23:14:41.069Z,100.00
2018-10-07T23:17:10.881Z,100.00
2018-10-07T23:19:40.706Z,100.00
2018-10-07T23:22:10.623Z,100.00
2018-10-07T23:24:40.362Z,100.00
2018-10-07T23:27:10.760Z,100.00
2018-10-07T23:29:40.561Z,100.00
2018-10-07T23:32:10.393Z,100.00
2018-10-07T23:34:40.199Z,100.00
2018-10-07T23:37:10.132Z,100.00
2018-10-07T23:39:40.140Z,100.00
2018-10-07T23:42:10.132Z,100.00
2018-10-07T23:44:39.919Z,100.00
2018-10-07T23:47:09.557Z,100.00
2018-10-07T23:49:39.133Z,100.00
2018-10-07T23:52:09.322Z,100.00
2018-10-07T23:54:39.814Z,100.00
2018-10-07T23:57:09.523Z,100.00
2018-10-07T23:59:39.301Z,100.00
